Time;durP1;ratioP1;P1;durP2;ratioP2;P2;SDS_P1;SDS_P2;PMS_P1;PMS_P2;Temp;Humidity;BMP_temperature;BMP_pressure;BME280_temperature;BME280_humidity;BME280_pressure;Samples;Min_cycle;Max_cycle;Signal;HPM_P1;HPM_P2
2024/01/11 00:00:38;;;;;;;;;;;;;;;-0.86;55.46;100460.75;4409569;32;34023;-83
2024/01/11 00:03:06;;;;;;;;;;;;;;;-1.03;55.83;100457.75;4423934;32;32916;-84
2024/01/11 00:05:33;;;;;;;;;;;;;;;-1.02;55.96;100459.56;4414562;32;33883;-84
2024/01/11 00:08:01;;;;;;;;;;;;;;;-0.92;56.07;100460.28;4433880;32;34106;-85
2024/01/11 00:10:28;;;;;;;;;;;;;;;-0.88;55.96;100457.19;4420442;32;33936;-84
2024/01/11 00:12:55;;;;;;;;;;;;;;;-0.89;56.03;100456.31;4433076;32;34656;-86
2024/01/11 00:15:22;;;;;;;;;;;;;;;-0.86;55.88;100465.84;4435996;32;34894;-85
2024/01/11 00:17:50;;;;;;;;;;;;;;;-0.88;56.19;100462.28;4435396;32;35406;-85
2024/01/11 00:20:17;;;;;;;;;;;;;;;-0.82;56.34;100467.87;4434788;32;35137;-84
2024/01/11 00:22:45;;;;;;;;;;;;;;;-0.95;56.94;100457.47;4428618;32;33380;-86
2024/01/11 00:25:12;;;;;;;;;;;;;;;-1.04;57.33;100445.81;4422209;32;34091;-85
2024/01/11 00:27:40;;;;;;;;;;;;;;;-0.97;57.22;100442.09;4434975;32;34027;-85
2024/01/11 00:30:07;;;;;;;;;;;;;;;-0.92;57.30;100450.09;4435907;32;34382;-85
2024/01/11 00:32:35;;;;;;;;;;;;;;;-1.07;57.56;100440.47;4436367;32;32056;-84
2024/01/11 00:35:02;;;;;;;;;;;;;;;-0.92;57.36;100445.88;4435604;32;33766;-85
2024/01/11 00:37:29;;;;;;;;;;;;;;;-0.99;57.53;100446.16;4435430;32;35092;-86
2024/01/11 00:39:57;;;;;;;;;;;;;;;-0.94;57.25;100436.38;4433465;32;34401;-84
2024/01/11 00:42:24;;;;;;;;;;;;;;;-0.82;56.87;100443.28;4430110;32;33124;-84
2024/01/11 00:44:51;;;;;;;;;;;;;;;-0.73;56.32;100438.91;4434481;32;34880;-85
2024/01/11 00:47:19;;;;;;;;;;;;;;;-0.96;57.03;100427.72;4421966;32;34397;-86
2024/01/11 00:49:46;;;;;;;;;;;;;;;-0.87;57.07;100425.88;4434501;32;34007;-85
2024/01/11 00:52:13;;;;;;;;;;;;;;;-0.78;56.65;100432.56;4434258;32;32993;-85
2024/01/11 00:54:41;;;;;;;;;;;;;;;-0.70;56.29;100429.75;4434001;32;34226;-85
2024/01/11 00:57:08;;;;;;;;;;;;;;;-0.82;56.37;100424.59;4436286;32;34318;-86
2024/01/11 00:59:35;;;;;;;;;;;;;;;-0.87;56.50;100424.25;4436979;32;34366;-85
2024/01/11 01:02:03;;;;;;;;;;;;;;;-0.77;56.35;100418.19;4422747;32;34290;-84
2024/01/11 01:04:30;;;;;;;;;;;;;;;-0.70;55.91;100412.78;4434169;32;34536;-83
2024/01/11 01:06:58;;;;;;;;;;;;;;;-0.71;55.93;100415.25;4430949;32;32963;-86
2024/01/11 01:09:25;;;;;;;;;;;;;;;-0.98;56.60;100410.66;4427982;32;33946;-85
2024/01/11 01:11:52;;;;;;;;;;;;;;;-0.98;56.58;100410.66;4433958;32;33425;-84
2024/01/11 01:14:19;;;;;;;;;;;;;;;-0.95;56.64;100407.44;4431631;32;33975;-86
2024/01/11 01:16:47;;;;;;;;;;;;;;;-0.73;56.08;100397.28;4435064;32;34472;-85
2024/01/11 01:19:14;;;;;;;;;;;;;;;-0.73;55.91;100402.38;4433393;32;35026;-84
2024/01/11 01:21:42;;;;;;;;;;;;;;;-0.84;56.01;100395.56;4431588;32;33417;-85
2024/01/11 01:24:09;;;;;;;;;;;;;;;-0.85;56.16;100401.44;4435446;32;34017;-86
2024/01/11 01:26:37;;;;;;;;;;;;;;;-0.92;56.56;100394.09;4429052;32;35690;-84
2024/01/11 01:29:05;;;;;;;;;;;;;;;-0.90;56.50;100388.34;4419660;32;34037;-84
2024/01/11 01:31:37;;;;;;;;;;;;;;;-0.79;56.30;100384.97;4420311;32;32809;-84
2024/01/11 01:34:04;;;;;;;;;;;;;;;-0.84;56.30;100385.38;4419090;32;32506;-84
2024/01/11 01:36:32;;;;;;;;;;;;;;;-0.74;55.87;100376.03;4420996;32;33554;-86
2024/01/11 01:39:00;;;;;;;;;;;;;;;-0.71;55.75;100380.47;4428652;32;34690;-86
2024/01/11 01:41:27;;;;;;;;;;;;;;;-0.93;56.36;100374.50;4433473;32;34427;-85
2024/01/11 01:43:54;;;;;;;;;;;;;;;-1.08;56.84;100370.00;4434538;32;34902;-85
2024/01/11 01:46:23;;;;;;;;;;;;;;;-0.79;56.19;100361.19;4434980;32;34058;-85
2024/01/11 01:48:51;;;;;;;;;;;;;;;-0.78;55.84;100366.37;4431515;32;34280;-85
2024/01/11 01:51:19;;;;;;;;;;;;;;;-1.08;56.55;100366.56;4433712;32;33511;-83
2024/01/11 01:53:46;;;;;;;;;;;;;;;-0.91;56.19;100362.75;4420741;32;34090;-85
2024/01/11 01:56:13;;;;;;;;;;;;;;;-0.93;56.28;100362.66;4434427;32;33964;-85
2024/01/11 01:58:41;;;;;;;;;;;;;;;-0.91;56.27;100355.13;4434595;32;34120;-85
2024/01/11 02:01:09;;;;;;;;;;;;;;;-1.05;56.61;100352.41;4433058;32;34011;-84
2024/01/11 02:03:38;;;;;;;;;;;;;;;-1.09;56.56;100350.41;4435425;32;34585;-85
2024/01/11 02:06:06;;;;;;;;;;;;;;;-0.95;56.48;100353.13;4434775;32;35160;-87
2024/01/11 02:08:33;;;;;;;;;;;;;;;-0.92;56.28;100348.25;4421118;32;34369;-86
2024/01/11 02:11:01;;;;;;;;;;;;;;;-1.11;56.48;100346.84;4431505;32;32997;-86
2024/01/11 02:13:29;;;;;;;;;;;;;;;-1.13;56.73;100335.66;4435861;32;34036;-86
2024/01/11 02:15:56;;;;;;;;;;;;;;;-0.83;56.01;100338.81;4434896;32;35195;-84
2024/01/11 02:18:23;;;;;;;;;;;;;;;-0.89;55.85;100334.12;4434418;32;35080;-85
2024/01/11 02:20:51;;;;;;;;;;;;;;;-1.05;56.09;100332.06;4419177;32;33602;-84
2024/01/11 02:23:19;;;;;;;;;;;;;;;-1.10;56.34;100335.00;4434090;32;35010;-87
2024/01/11 02:25:46;;;;;;;;;;;;;;;-1.22;56.63;100325.66;4420840;32;35213;-86
2024/01/11 02:28:14;;;;;;;;;;;;;;;-1.20;57.07;100320.69;4434620;32;34227;-87
2024/01/11 02:30:42;;;;;;;;;;;;;;;-1.12;56.93;100323.84;4430022;32;33129;-84
2024/01/11 02:33:10;;;;;;;;;;;;;;;-0.96;56.47;100314.06;4432157;32;34297;-86
2024/01/11 02:35:39;;;;;;;;;;;;;;;-1.13;56.70;100312.78;4421066;32;34712;-85
2024/01/11 02:38:10;;;;;;;;;;;;;;;-1.13;56.61;100317.84;4422093;32;35126;-83
2024/01/11 02:40:37;;;;;;;;;;;;;;;-1.20;56.64;100307.09;4420439;32;33074;-84
2024/01/11 02:43:10;;;;;;;;;;;;;;;-1.15;56.43;100311.75;4434740;32;35254;-85
2024/01/11 02:45:38;;;;;;;;;;;;;;;-1.29;56.79;100297.06;4433649;32;34246;-85
2024/01/11 02:48:05;;;;;;;;;;;;;;;-1.15;56.32;100303.22;4434625;32;35159;-84
2024/01/11 02:50:32;;;;;;;;;;;;;;;-1.09;56.05;100296.09;4427330;32;34181;-84
2024/01/11 02:53:00;;;;;;;;;;;;;;;-1.19;56.06;100302.09;4435044;32;34898;-85
2024/01/11 02:55:27;;;;;;;;;;;;;;;-1.35;56.54;100294.06;4434145;32;35075;-86
2024/01/11 02:57:55;;;;;;;;;;;;;;;-1.39;56.94;100298.03;4434170;32;34405;-85
2024/01/11 03:00:22;;;;;;;;;;;;;;;-1.53;57.12;100294.41;4430921;32;33655;-84
2024/01/11 03:02:49;;;;;;;;;;;;;;;-1.33;56.91;100293.41;4429304;32;33917;-85
2024/01/11 03:05:16;;;;;;;;;;;;;;;-1.29;56.48;100286.88;4435194;32;34475;-86
2024/01/11 03:07:44;;;;;;;;;;;;;;;-1.45;56.87;100279.72;4434679;32;34814;-85
2024/01/11 03:10:11;;;;;;;;;;;;;;;-1.66;57.45;100284.03;4433720;32;33288;-84
2024/01/11 03:12:39;;;;;;;;;;;;;;;-1.51;57.29;100279.28;4435655;32;34164;-86
2024/01/11 03:15:07;;;;;;;;;;;;;;;-1.48;57.19;100280.41;4433511;32;34910;-85
2024/01/11 03:17:34;;;;;;;;;;;;;;;-1.43;56.85;100277.31;4434862;32;35025;-84
2024/01/11 03:20:03;;;;;;;;;;;;;;;-1.59;57.31;100278.69;4435172;32;33234;-84
2024/01/11 03:22:31;;;;;;;;;;;;;;;-1.43;56.94;100273.12;4434720;32;33952;-85
2024/01/11 03:24:58;;;;;;;;;;;;;;;-1.38;56.64;100274.34;4435217;32;34298;-86
2024/01/11 03:27:25;;;;;;;;;;;;;;;-1.31;56.54;100270.63;4435637;32;34081;-85
2024/01/11 03:29:52;;;;;;;;;;;;;;;-1.13;56.00;100261.00;4434448;32;33916;-84
2024/01/11 03:32:19;;;;;;;;;;;;;;;-1.27;56.24;100258.25;4435434;32;34541;-85
2024/01/11 03:34:47;;;;;;;;;;;;;;;-1.20;56.13;100257.09;4435559;32;34381;-85
2024/01/11 03:37:14;;;;;;;;;;;;;;;-1.26;56.25;100252.41;4420841;32;35057;-85
2024/01/11 03:39:42;;;;;;;;;;;;;;;-1.23;56.05;100249.22;4433911;32;34226;-85
2024/01/11 03:42:09;;;;;;;;;;;;;;;-1.15;55.86;100237.06;4432427;32;35032;-83
2024/01/11 03:44:37;;;;;;;;;;;;;;;-1.14;55.53;100234.63;4430491;32;35117;-85
2024/01/11 03:47:04;;;;;;;;;;;;;;;-1.14;55.44;100232.09;4434337;32;34049;-83
2024/01/11 03:49:32;;;;;;;;;;;;;;;-1.24;55.74;100232.19;4417033;32;33936;-85
2024/01/11 03:51:59;;;;;;;;;;;;;;;-1.18;55.80;100225.00;4433539;32;34180;-85
2024/01/11 03:54:26;;;;;;;;;;;;;;;-1.29;55.91;100225.84;4434577;32;34781;-84
2024/01/11 03:56:54;;;;;;;;;;;;;;;-1.27;55.79;100221.75;4433431;32;33998;-84
2024/01/11 03:59:21;;;;;;;;;;;;;;;-1.23;55.68;100219.56;4427308;32;33557;-84
2024/01/11 04:01:49;;;;;;;;;;;;;;;-1.30;55.64;100212.22;4433942;32;33846;-85
2024/01/11 04:04:16;;;;;;;;;;;;;;;-1.27;55.55;100207.38;4431730;32;34972;-85
2024/01/11 04:06:44;;;;;;;;;;;;;;;-1.51;55.92;100215.69;4432626;32;35154;-85
2024/01/11 04:09:12;;;;;;;;;;;;;;;-1.49;56.07;100207.41;4434893;32;34010;-85
2024/01/11 04:11:39;;;;;;;;;;;;;;;-1.41;55.89;100209.66;4432985;32;34104;-85
2024/01/11 04:14:06;;;;;;;;;;;;;;;-1.45;55.94;100208.53;4433913;32;33951;-85
2024/01/11 04:16:34;;;;;;;;;;;;;;;-1.20;55.29;100208.75;4434240;32;35100;-84
2024/01/11 04:19:03;;;;;;;;;;;;;;;-1.29;55.19;100219.13;4434887;32;33348;-83
2024/01/11 04:21:31;;;;;;;;;;;;;;;-1.36;55.45;100214.31;4434706;32;34208;-85
2024/01/11 04:23:58;;;;;;;;;;;;;;;-1.44;55.55;100222.12;4436207;32;34209;-85
2024/01/11 04:26:25;;;;;;;;;;;;;;;-1.43;55.57;100213.75;4436921;32;34016;-84
2024/01/11 04:28:53;;;;;;;;;;;;;;;-1.69;55.83;100219.34;4422794;32;33575;-84
2024/01/11 04:31:24;;;;;;;;;;;;;;;-1.56;55.92;100222.06;4420976;32;34054;-85
2024/01/11 04:33:52;;;;;;;;;;;;;;;-1.65;56.28;100219.72;4430114;32;34367;-85
2024/01/11 04:36:19;;;;;;;;;;;;;;;-1.65;56.17;100222.25;4435458;32;34118;-85
2024/01/11 04:38:46;;;;;;;;;;;;;;;-1.87;57.01;100228.97;4434290;32;33349;-85
2024/01/11 04:41:14;;;;;;;;;;;;;;;-1.95;57.14;100230.91;4424892;32;34351;-84
2024/01/11 04:43:42;;;;;;;;;;;;;;;-1.83;57.10;100225.91;4435641;32;34855;-84
2024/01/11 04:46:16;;;;;;;;;;;;;;;-1.78;57.06;100229.66;4418948;32;33915;-85
2024/01/11 04:48:44;;;;;;;;;;;;;;;-1.66;56.39;100228.13;4420275;32;34519;-86
2024/01/11 04:51:12;;;;;;;;;;;;;;;-1.67;56.12;100228.84;4434204;32;33396;-84
2024/01/11 04:53:40;;;;;;;;;;;;;;;-1.79;56.38;100228.78;4433907;32;34344;-86
2024/01/11 04:56:07;;;;;;;;;;;;;;;-1.70;56.28;100228.66;4435074;32;34094;-85
2024/01/11 04:58:35;;;;;;;;;;;;;;;-1.77;56.43;100231.47;4422234;32;33215;-83
2024/01/11 05:01:02;;;;;;;;;;;;;;;-1.72;56.16;100223.41;4434782;32;35017;-84
2024/01/11 05:03:30;;;;;;;;;;;;;;;-1.73;56.15;100223.31;4433995;32;34810;-85
2024/01/11 05:05:57;;;;;;;;;;;;;;;-1.87;56.53;100221.34;4436418;32;34421;-84
2024/01/11 05:08:25;;;;;;;;;;;;;;;-1.87;56.23;100228.97;4433493;32;34438;-85
2024/01/11 05:10:53;;;;;;;;;;;;;;;-1.95;56.65;100223.28;4434220;32;33902;-85
2024/01/11 05:13:20;;;;;;;;;;;;;;;-1.84;56.45;100222.47;4422061;32;34375;-85
2024/01/11 05:15:47;;;;;;;;;;;;;;;-1.74;56.41;100217.34;4421496;32;34469;-85
2024/01/11 05:18:15;;;;;;;;;;;;;;;-1.76;56.25;100215.44;4434911;32;33054;-85
2024/01/11 05:20:42;;;;;;;;;;;;;;;-1.75;56.05;100219.75;4435664;32;34055;-83
2024/01/11 05:23:11;;;;;;;;;;;;;;;-1.84;56.40;100216.50;4432036;32;34153;-84
2024/01/11 05:25:39;;;;;;;;;;;;;;;-1.92;56.37;100220.09;4435147;32;33361;-86
2024/01/11 05:28:06;;;;;;;;;;;;;;;-1.90;56.26;100216.00;4435231;32;34371;-83
2024/01/11 05:30:33;;;;;;;;;;;;;;;-1.94;56.61;100212.34;4435041;32;34250;-84
2024/01/11 05:33:01;;;;;;;;;;;;;;;-1.92;56.63;100217.56;4434093;32;33683;-85
2024/01/11 05:35:29;;;;;;;;;;;;;;;-1.96;56.67;100224.06;4429182;32;35143;-86
2024/01/11 05:37:56;;;;;;;;;;;;;;;-2.25;57.20;100215.00;4431144;32;33638;-85
2024/01/11 05:40:24;;;;;;;;;;;;;;;-2.09;56.84;100217.09;4435899;32;35001;-84
2024/01/11 05:42:51;;;;;;;;;;;;;;;-1.97;56.55;100227.34;4434701;32;33859;-85
2024/01/11 05:45:18;;;;;;;;;;;;;;;-2.35;58.12;100225.22;4432846;32;35139;-84
2024/01/11 05:47:53;;;;;;;;;;;;;;;-1.98;57.13;100223.91;4432666;32;33297;-85
2024/01/11 05:50:21;;;;;;;;;;;;;;;-2.14;57.61;100223.47;4436426;32;33578;-85
2024/01/11 05:52:48;;;;;;;;;;;;;;;-2.06;57.35;100221.53;4435746;32;34232;-84
2024/01/11 05:55:16;;;;;;;;;;;;;;;-2.06;57.16;100217.34;4436711;32;34094;-84
2024/01/11 05:57:43;;;;;;;;;;;;;;;-1.97;57.27;100207.94;4435591;32;33593;-85
2024/01/11 06:00:11;;;;;;;;;;;;;;;-1.87;56.78;100214.59;4435162;32;33784;-84
2024/01/11 06:02:38;;;;;;;;;;;;;;;-2.02;56.96;100219.34;4432841;32;33899;-86
2024/01/11 06:05:09;;;;;;;;;;;;;;;-2.17;57.67;100227.41;4433978;32;35565;-83
2024/01/11 06:07:36;;;;;;;;;;;;;;;-2.04;57.38;100230.19;4436392;32;33323;-84
2024/01/11 06:10:06;;;;;;;;;;;;;;;-2.37;59.84;100224.19;4436147;32;35133;-83
2024/01/11 06:12:33;;;;;;;;;;;;;;;-2.75;60.08;100218.53;4435544;32;35224;-84
2024/01/11 06:15:00;;;;;;;;;;;;;;;-2.22;59.09;100220.31;4436186;32;33962;-85
2024/01/11 06:17:28;;;;;;;;;;;;;;;-2.47;59.46;100219.13;4433006;32;33080;-83
2024/01/11 06:19:55;;;;;;;;;;;;;;;-2.49;60.51;100220.66;4435124;32;34308;-85
2024/01/11 06:22:22;;;;;;;;;;;;;;;-2.10;59.49;100222.06;4434928;32;34149;-84
2024/01/11 06:24:50;;;;;;;;;;;;;;;-2.07;58.78;100223.19;4433784;32;34341;-86
2024/01/11 06:27:17;;;;;;;;;;;;;;;-2.10;59.20;100201.75;4435702;32;33428;-85
2024/01/11 06:29:44;;;;;;;;;;;;;;;-2.03;59.44;100211.62;4433663;32;34983;-86
2024/01/11 06:32:12;;;;;;;;;;;;;;;-2.13;59.09;100204.91;4420149;32;34047;-87
2024/01/11 06:34:41;;;;;;;;;;;;;;;-2.35;60.49;100206.50;4433655;32;34088;-85
2024/01/11 06:37:08;;;;;;;;;;;;;;;-2.24;60.91;100201.53;4435110;32;33552;-85
2024/01/11 06:39:36;;;;;;;;;;;;;;;-2.54;62.17;100205.06;4433682;32;34260;-88
2024/01/11 06:42:03;;;;;;;;;;;;;;;-2.74;62.94;100202.53;4422138;32;35210;-87
2024/01/11 06:44:31;;;;;;;;;;;;;;;-1.87;60.44;100204.44;4434186;32;34427;-85
2024/01/11 06:46:58;;;;;;;;;;;;;;;-1.68;59.30;100204.22;4435754;32;33190;-85
2024/01/11 06:49:25;;;;;;;;;;;;;;;-2.08;60.84;100198.56;4435304;32;34789;-85
2024/01/11 06:51:53;;;;;;;;;;;;;;;-1.77;60.01;100195.88;4428126;32;34418;-86
2024/01/11 06:54:20;;;;;;;;;;;;;;;-2.32;61.91;100201.69;4435555;32;34432;-87
2024/01/11 06:56:47;;;;;;;;;;;;;;;-3.00;64.13;100208.91;4435340;32;33276;-85
2024/01/11 06:59:15;;;;;;;;;;;;;;;-2.23;62.41;100202.44;4429607;32;35129;-85
2024/01/11 07:01:46;;;;;;;;;;;;;;;-2.19;61.94;100204.47;4435082;32;33754;-85
2024/01/11 07:04:14;;;;;;;;;;;;;;;-2.01;61.76;100199.91;4436527;32;34461;-86
2024/01/11 07:06:41;;;;;;;;;;;;;;;-2.12;61.96;100204.19;4436154;32;33316;-85
2024/01/11 07:09:10;;;;;;;;;;;;;;;-2.51;63.33;100197.66;4436147;32;34574;-85
2024/01/11 07:11:38;;;;;;;;;;;;;;;-2.86;64.62;100204.09;4435742;32;34454;-85
2024/01/11 07:14:05;;;;;;;;;;;;;;;-2.37;63.24;100192.81;4435135;32;35143;-83
2024/01/11 07:16:32;;;;;;;;;;;;;;;-2.26;62.92;100192.03;4434664;32;33325;-86
2024/01/11 07:19:00;;;;;;;;;;;;;;;-2.94;64.87;100196.72;4436218;32;33645;-86
2024/01/11 07:21:31;;;;;;;;;;;;;;;-2.50;64.12;100199.47;4435614;32;34402;-86
2024/01/11 07:23:59;;;;;;;;;;;;;;;-2.20;63.00;100207.72;4436234;32;33593;-85
2024/01/11 07:26:26;;;;;;;;;;;;;;;-1.75;60.98;100200.28;4435732;32;33709;-85
2024/01/11 07:28:57;;;;;;;;;;;;;;;-2.41;63.35;100191.69;4432316;32;33789;-86
2024/01/11 07:31:24;;;;;;;;;;;;;;;-2.15;63.17;100198.84;4434335;32;35917;-84
2024/01/11 07:33:52;;;;;;;;;;;;;;;-2.21;63.64;100204.31;4434875;32;35223;-84
2024/01/11 07:36:19;;;;;;;;;;;;;;;-2.45;64.54;100194.75;4435785;32;33114;-86
2024/01/11 07:38:47;;;;;;;;;;;;;;;-2.48;64.50;100195.38;4435849;32;34286;-86
2024/01/11 07:41:14;;;;;;;;;;;;;;;-2.37;64.52;100197.91;4435533;32;35348;-85
2024/01/11 07:43:41;;;;;;;;;;;;;;;-2.37;64.61;100200.44;4434738;32;34442;-85
2024/01/11 07:46:20;;;;;;;;;;;;;;;-2.10;63.75;100196.66;4435613;32;33874;-85
2024/01/11 07:49:05;;;;;;;;;;;;;;;-2.20;64.52;100189.94;4434549;32;34555;-85
2024/01/11 07:51:34;;;;;;;;;;;;;;;-1.84;63.36;100188.53;4435341;32;34235;-86
2024/01/11 07:54:02;;;;;;;;;;;;;;;-1.81;63.58;100193.88;4433835;32;34690;-86
2024/01/11 07:56:30;;;;;;;;;;;;;;;-1.58;62.27;100186.37;4437518;32;33314;-85
2024/01/11 07:58:57;;;;;;;;;;;;;;;-2.07;64.03;100181.66;4432300;32;34295;-84
2024/01/11 08:01:24;;;;;;;;;;;;;;;-1.43;62.42;100183.22;4423681;32;34827;-86
2024/01/11 08:03:52;;;;;;;;;;;;;;;-2.13;64.17;100176.09;4423791;32;34407;-85
2024/01/11 08:06:20;;;;;;;;;;;;;;;-2.39;64.88;100187.59;4436927;32;33054;-85
2024/01/11 08:08:51;;;;;;;;;;;;;;;-2.14;64.44;100193.00;4437233;32;34966;-84
2024/01/11 08:11:20;;;;;;;;;;;;;;;-2.13;64.29;100184.59;4437469;32;34328;-86
2024/01/11 08:13:47;;;;;;;;;;;;;;;-1.93;63.67;100178.56;4435784;32;33949;-85
2024/01/11 08:16:16;;;;;;;;;;;;;;;-2.44;65.03;100176.19;4436361;32;33982;-85
2024/01/11 08:18:43;;;;;;;;;;;;;;;-2.64;66.01;100171.19;4436091;32;33681;-86
2024/01/11 08:21:11;;;;;;;;;;;;;;;-2.20;64.93;100164.56;4437125;32;34490;-86
2024/01/11 08:23:44;;;;;;;;;;;;;;;-1.96;63.51;100161.41;4437113;32;34016;-85
2024/01/11 08:26:13;;;;;;;;;;;;;;;-1.86;63.03;100159.56;4437670;32;33693;-86
2024/01/11 08:28:42;;;;;;;;;;;;;;;-1.92;63.17;100151.50;4427852;32;35057;-85
2024/01/11 08:31:09;;;;;;;;;;;;;;;-2.29;64.42;100149.47;4423722;32;34335;-86
2024/01/11 08:33:37;;;;;;;;;;;;;;;-1.82;62.74;100159.94;4436860;32;34704;-84
2024/01/11 08:36:06;;;;;;;;;;;;;;;-2.12;64.18;100153.38;4437210;32;33621;-84
2024/01/11 08:38:33;;;;;;;;;;;;;;;-1.59;62.41;100141.38;4435988;32;34956;-84
2024/01/11 08:41:02;;;;;;;;;;;;;;;-1.68;62.38;100147.41;4435709;32;35641;-85
2024/01/11 08:43:29;;;;;;;;;;;;;;;-1.89;63.20;100151.72;4436808;32;34823;-85
2024/01/11 08:45:56;;;;;;;;;;;;;;;-1.58;62.64;100148.22;4435868;32;33188;-85
2024/01/11 08:48:24;;;;;;;;;;;;;;;-1.66;62.32;100140.78;4437363;32;34057;-84
2024/01/11 08:50:51;;;;;;;;;;;;;;;-1.06;60.68;100131.78;4437148;32;34885;-85
2024/01/11 08:53:19;;;;;;;;;;;;;;;-1.85;62.48;100146.13;4437248;32;33392;-85
2024/01/11 08:55:47;;;;;;;;;;;;;;;-1.58;61.89;100145.69;4435352;32;33581;-85
2024/01/11 08:58:14;;;;;;;;;;;;;;;-1.47;61.49;100134.66;4435323;32;34842;-84
2024/01/11 09:00:42;;;;;;;;;;;;;;;-1.75;62.68;100138.41;4437198;32;34723;-86
2024/01/11 09:03:13;;;;;;;;;;;;;;;-1.29;61.11;100136.78;4436920;32;34102;-85
2024/01/11 09:05:41;;;;;;;;;;;;;;;-1.32;61.46;100136.59;4435723;32;33436;-84
2024/01/11 09:08:08;;;;;;;;;;;;;;;-1.28;61.29;100138.59;4436640;32;33614;-83
2024/01/11 09:10:36;;;;;;;;;;;;;;;-1.32;61.44;100136.59;4436677;32;32473;-87
2024/01/11 09:13:03;;;;;;;;;;;;;;;-1.41;61.50;100133.34;4436717;32;34334;-85
2024/01/11 09:15:31;;;;;;;;;;;;;;;-1.71;62.42;100135.31;4431130;32;33625;-85
2024/01/11 09:18:00;;;;;;;;;;;;;;;-1.59;62.26;100136.28;4436233;32;35548;-83
2024/01/11 09:20:28;;;;;;;;;;;;;;;-1.12;60.98;100131.31;4445818;32;34146;-83
2024/01/11 09:22:55;;;;;;;;;;;;;;;-0.96;60.07;100138.41;4452522;32;35114;-83
2024/01/11 09:25:23;;;;;;;;;;;;;;;-0.65;58.54;100131.34;4437375;32;33556;-85
2024/01/11 09:27:51;;;;;;;;;;;;;;;-0.85;59.34;100131.56;4434735;32;33920;-85
2024/01/11 09:30:18;;;;;;;;;;;;;;;-0.75;59.52;100118.75;4435885;32;36218;-83
2024/01/11 09:32:46;;;;;;;;;;;;;;;-0.70;58.77;100116.53;4451870;32;34370;-84
2024/01/11 09:35:14;;;;;;;;;;;;;;;-0.72;59.07;100121.50;4446945;32;33327;-85
2024/01/11 09:37:44;;;;;;;;;;;;;;;-0.86;59.71;100117.97;4435037;32;34055;-84
2024/01/11 09:40:12;;;;;;;;;;;;;;;-0.77;59.80;100110.09;4436425;32;34234;-85
2024/01/11 09:42:39;;;;;;;;;;;;;;;-0.60;59.92;100096.94;4436313;32;34508;-86
2024/01/11 09:45:07;;;;;;;;;;;;;;;-0.86;60.52;100084.00;4422145;32;33403;-86
2024/01/11 09:47:35;;;;;;;;;;;;;;;-1.11;60.29;100091.50;4436321;32;34819;-85
2024/01/11 09:50:02;;;;;;;;;;;;;;;-0.83;60.61;100084.22;4435598;32;34238;-86
2024/01/11 09:52:32;;;;;;;;;;;;;;;-0.95;60.62;100068.91;4435246;32;34738;-87
2024/01/11 09:55:03;;;;;;;;;;;;;;;-0.71;59.56;100054.53;4436020;32;33997;-86
2024/01/11 09:57:30;;;;;;;;;;;;;;;-0.75;59.44;100047.47;4435791;32;33716;-85
2024/01/11 09:59:57;;;;;;;;;;;;;;;-1.13;59.67;100043.03;4433499;32;33070;-87
2024/01/11 10:02:26;;;;;;;;;;;;;;;-0.60;57.97;100048.56;4433344;32;35148;-86
2024/01/11 10:04:54;;;;;;;;;;;;;;;-0.52;57.87;100033.81;4433837;32;33940;-85
2024/01/11 10:07:22;;;;;;;;;;;;;;;0.19;56.58;100026.78;4422173;32;33718;-84
2024/01/11 10:09:49;;;;;;;;;;;;;;;-0.25;57.49;100027.19;4435767;32;35109;-86
2024/01/11 10:12:17;;;;;;;;;;;;;;;-0.13;57.43;100028.03;4449876;32;34165;-86
2024/01/11 10:14:44;;;;;;;;;;;;;;;0.14;57.14;100023.91;4448845;32;33985;-85
2024/01/11 10:17:11;;;;;;;;;;;;;;;0.46;56.62;100025.22;4422444;32;34145;-85
2024/01/11 10:19:46;;;;;;;;;;;;;;;0.17;56.91;100023.25;4436575;32;35860;-86
2024/01/11 10:22:16;;;;;;;;;;;;;;;0.22;56.64;100015.12;4436572;32;34783;-86
2024/01/11 10:24:44;;;;;;;;;;;;;;;-0.07;57.25;100009.75;4436787;32;33058;-85
2024/01/11 10:27:12;;;;;;;;;;;;;;;0.32;56.65;100008.97;4441867;32;34604;-85
2024/01/11 10:29:39;;;;;;;;;;;;;;;0.60;55.86;100000.59;4452291;32;34176;-86
2024/01/11 10:32:06;;;;;;;;;;;;;;;0.33;56.21;99985.22;4424799;32;33987;-84
2024/01/11 10:34:34;;;;;;;;;;;;;;;0.77;54.89;99994.03;4422716;32;33405;-85
2024/01/11 10:37:02;;;;;;;;;;;;;;;0.10;56.20;99985.37;4436605;32;34204;-86
2024/01/11 10:39:29;;;;;;;;;;;;;;;0.30;56.39;99985.03;4435823;32;34007;-87
2024/01/11 10:42:04;;;;;;;;;;;;;;;0.34;56.75;99991.22;4435199;32;34746;-86
2024/01/11 10:44:33;;;;;;;;;;;;;;;0.25;57.30;99991.50;4434642;32;33324;-85
2024/01/11 10:47:02;;;;;;;;;;;;;;;0.89;55.97;99994.81;4436109;32;34341;-86
2024/01/11 10:49:30;;;;;;;;;;;;;;;0.83;56.30;99984.22;4436281;32;34449;-86
2024/01/11 10:52:03;;;;;;;;;;;;;;;0.55;56.23;99979.00;4434986;32;33994;-85
2024/01/11 10:54:31;;;;;;;;;;;;;;;0.77;55.12;99973.62;4436413;32;33726;-86
2024/01/11 10:56:59;;;;;;;;;;;;;;;0.66;54.96;99970.37;4435090;32;34578;-86
2024/01/11 10:59:27;;;;;;;;;;;;;;;0.84;55.12;99984.31;4434996;32;34154;-86
2024/01/11 11:01:56;;;;;;;;;;;;;;;0.18;55.04;99984.22;4431726;32;33521;-86
2024/01/11 11:04:23;;;;;;;;;;;;;;;0.33;54.90;99979.25;4422746;32;33828;-86
2024/01/11 11:06:51;;;;;;;;;;;;;;;0.53;53.88;99972.91;4422010;32;33837;-86
2024/01/11 11:09:19;;;;;;;;;;;;;;;0.11;54.24;99966.75;4422281;32;35107;-86
2024/01/11 11:11:46;;;;;;;;;;;;;;;0.06;54.80;99953.69;4436270;32;34263;-85
2024/01/11 11:14:17;;;;;;;;;;;;;;;0.43;53.90;99951.03;4422300;32;33370;-87
2024/01/11 11:16:45;;;;;;;;;;;;;;;-0.07;54.54;99943.47;4422512;32;34167;-86
2024/01/11 11:19:12;;;;;;;;;;;;;;;0.45;53.29;99935.00;4421969;32;35165;-85
2024/01/11 11:21:43;;;;;;;;;;;;;;;0.41;53.57;99939.81;4422095;32;34946;-86
2024/01/11 11:24:11;;;;;;;;;;;;;;;-0.02;54.59;99935.34;4421444;32;34210;-86
2024/01/11 11:26:38;;;;;;;;;;;;;;;0.54;53.68;99924.53;4420346;32;34167;-85
2024/01/11 11:29:05;;;;;;;;;;;;;;;0.52;53.69;99925.22;4419234;32;34367;-85
2024/01/11 11:31:37;;;;;;;;;;;;;;;0.67;53.23;99928.75;4422454;32;34903;-86
2024/01/11 11:34:05;;;;;;;;;;;;;;;1.32;51.30;99921.78;4421104;32;34388;-84
2024/01/11 11:36:34;;;;;;;;;;;;;;;1.00;52.18;99921.47;4422231;32;34641;-86
2024/01/11 11:39:02;;;;;;;;;;;;;;;0.69;53.03;99919.53;4421034;32;35018;-86
2024/01/11 11:41:32;;;;;;;;;;;;;;;0.87;52.97;99902.84;4420945;32;34482;-87
2024/01/11 11:44:03;;;;;;;;;;;;;;;0.70;52.78;99893.22;4422238;32;34147;-86
2024/01/11 11:46:31;;;;;;;;;;;;;;;1.06;51.86;99902.31;4410879;32;33263;-85
2024/01/11 11:48:59;;;;;;;;;;;;;;;1.10;51.30;99896.59;4421122;32;33318;-85
2024/01/11 11:51:27;;;;;;;;;;;;;;;0.73;51.80;99885.78;4395788;32;33839;-87
2024/01/11 11:53:55;;;;;;;;;;;;;;;0.66;52.39;99888.72;4410916;32;32206;-86
2024/01/11 11:56:23;;;;;;;;;;;;;;;0.89;52.48;99880.81;4398341;32;34567;-86
2024/01/11 11:58:53;;;;;;;;;;;;;;;1.03;52.32;99886.81;4411077;32;33284;-85
2024/01/11 12:01:20;;;;;;;;;;;;;;;1.10;51.85;99893.16;4411046;32;34027;-86
2024/01/11 12:03:51;;;;;;;;;;;;;;;1.23;51.67;99870.13;4423778;32;33646;-85
2024/01/11 12:06:18;;;;;;;;;;;;;;;1.51;51.05;99876.91;4423961;32;33793;-85
2024/01/11 12:08:47;;;;;;;;;;;;;;;1.48;50.83;99871.59;4410725;32;33762;-85
2024/01/11 12:11:15;;;;;;;;;;;;;;;1.30;51.96;99867.16;4423720;32;33978;-86
2024/01/11 12:13:44;;;;;;;;;;;;;;;1.33;51.92;99857.13;4423640;32;33441;-85
2024/01/11 12:16:11;;;;;;;;;;;;;;;1.08;52.65;99866.66;4421030;32;33832;-86
2024/01/11 12:18:39;;;;;;;;;;;;;;;1.16;52.70;99868.00;4422337;32;33227;-86
2024/01/11 12:21:10;;;;;;;;;;;;;;;1.35;52.48;99850.44;4423287;32;34053;-86
2024/01/11 12:23:38;;;;;;;;;;;;;;;1.29;52.26;99837.31;4435991;32;33367;-85
2024/01/11 12:26:07;;;;;;;;;;;;;;;1.07;52.43;99836.81;4422994;32;33734;-86
2024/01/11 12:28:35;;;;;;;;;;;;;;;1.37;51.91;99838.66;4436126;32;34184;-86
2024/01/11 12:31:03;;;;;;;;;;;;;;;0.99;52.53;99832.91;4423105;32;33973;-86
2024/01/11 12:33:31;;;;;;;;;;;;;;;1.31;51.58;99827.19;4422169;32;33040;-85
2024/01/11 12:35:58;;;;;;;;;;;;;;;1.09;52.22;99827.56;4420630;32;34506;-86
2024/01/11 12:38:26;;;;;;;;;;;;;;;1.55;51.11;99826.06;4422100;32;35144;-87
2024/01/11 12:40:53;;;;;;;;;;;;;;;1.58;50.65;99808.34;4421477;32;35165;-86
2024/01/11 12:43:20;;;;;;;;;;;;;;;1.11;51.19;99820.88;4421991;32;34690;-87